sensor_id;sensor_type;location;lat;lon;timestamp;P1;durP1;ratioP1;P2;durP2;ratioP2
7181;SDS011;3632;42.724;23.298;2022-10-31T00:01:18;7.37;;;5.00;;
7181;SDS011;3632;42.724;23.298;2022-10-31T00:03:46;6.93;;;5.10;;
7181;SDS011;3632;42.724;23.298;2022-10-31T00:06:13;8.67;;;4.73;;
7181;SDS011;3632;42.724;23.298;2022-10-31T00:08:40;6.03;;;4.43;;
7181;SDS011;3632;42.724;23.298;2022-10-31T00:11:08;7.43;;;4.93;;
7181;SDS011;3632;42.724;23.298;2022-10-31T00:13:35;6.20;;;4.93;;
7181;SDS011;3632;42.724;23.298;2022-10-31T00:16:04;7.73;;;4.80;;
7181;SDS011;3632;42.724;23.298;2022-10-31T00:18:31;6.37;;;4.80;;
7181;SDS011;3632;42.724;23.298;2022-10-31T00:20:58;5.90;;;4.77;;
7181;SDS011;3632;42.724;23.298;2022-10-31T00:23:25;7.20;;;4.93;;
7181;SDS011;3632;42.724;23.298;2022-10-31T00:25:52;7.10;;;5.57;;
7181;SDS011;3632;42.724;23.298;2022-10-31T00:28:19;8.03;;;5.20;;
7181;SDS011;3632;42.724;23.298;2022-10-31T00:30:46;9.10;;;5.03;;
7181;SDS011;3632;42.724;23.298;2022-10-31T00:33:14;6.43;;;5.03;;
7181;SDS011;3632;42.724;23.298;2022-10-31T00:35:40;9.77;;;4.97;;
7181;SDS011;3632;42.724;23.298;2022-10-31T00:38:07;7.30;;;5.20;;
7181;SDS011;3632;42.724;23.298;2022-10-31T00:40:34;7.93;;;4.90;;
7181;SDS011;3632;42.724;23.298;2022-10-31T00:43:01;6.60;;;5.00;;
7181;SDS011;3632;42.724;23.298;2022-10-31T00:45:27;8.53;;;5.50;;
7181;SDS011;3632;42.724;23.298;2022-10-31T00:47:54;8.80;;;5.03;;
7181;SDS011;3632;42.724;23.298;2022-10-31T00:50:22;6.90;;;5.00;;
7181;SDS011;3632;42.724;23.298;2022-10-31T00:52:49;6.30;;;4.97;;
7181;SDS011;3632;42.724;23.298;2022-10-31T00:55:15;6.87;;;4.60;;
7181;SDS011;3632;42.724;23.298;2022-10-31T00:57:42;7.13;;;4.70;;
7181;SDS011;3632;42.724;23.298;2022-10-31T01:00:12;9.47;;;5.27;;
7181;SDS011;3632;42.724;23.298;2022-10-31T01:02:39;7.90;;;5.50;;
7181;SDS011;3632;42.724;23.298;2022-10-31T01:05:06;8.57;;;5.23;;
7181;SDS011;3632;42.724;23.298;2022-10-31T01:07:36;7.93;;;4.70;;
7181;SDS011;3632;42.724;23.298;2022-10-31T01:10:03;5.97;;;4.83;;
7181;SDS011;3632;42.724;23.298;2022-10-31T01:12:35;10.03;;;5.70;;
7181;SDS011;3632;42.724;23.298;2022-10-31T01:15:02;6.93;;;5.27;;
7181;SDS011;3632;42.724;23.298;2022-10-31T01:17:29;7.27;;;4.83;;
7181;SDS011;3632;42.724;23.298;2022-10-31T01:19:56;9.00;;;5.20;;
7181;SDS011;3632;42.724;23.298;2022-10-31T01:22:23;6.30;;;4.53;;
7181;SDS011;3632;42.724;23.298;2022-10-31T01:24:51;8.50;;;4.67;;
7181;SDS011;3632;42.724;23.298;2022-10-31T01:27:18;7.90;;;4.67;;
7181;SDS011;3632;42.724;23.298;2022-10-31T01:29:44;7.87;;;4.80;;
7181;SDS011;3632;42.724;23.298;2022-10-31T01:32:11;6.47;;;4.70;;
7181;SDS011;3632;42.724;23.298;2022-10-31T01:34:38;9.60;;;5.20;;
7181;SDS011;3632;42.724;23.298;2022-10-31T01:37:05;7.37;;;4.90;;
7181;SDS011;3632;42.724;23.298;2022-10-31T01:39:32;6.67;;;4.73;;
7181;SDS011;3632;42.724;23.298;2022-10-31T01:42:00;8.90;;;5.43;;
7181;SDS011;3632;42.724;23.298;2022-10-31T01:47:17;8.10;;;5.23;;
7181;SDS011;3632;42.724;23.298;2022-10-31T01:49:46;5.00;;;4.50;;
7181;SDS011;3632;42.724;23.298;2022-10-31T01:52:18;5.70;;;4.90;;
7181;SDS011;3632;42.724;23.298;2022-10-31T01:54:50;9.30;;;5.53;;
7181;SDS011;3632;42.724;23.298;2022-10-31T01:57:23;6.47;;;5.10;;
7181;SDS011;3632;42.724;23.298;2022-10-31T01:59:52;7.50;;;5.33;;
7181;SDS011;3632;42.724;23.298;2022-10-31T02:02:23;9.03;;;5.43;;
7181;SDS011;3632;42.724;23.298;2022-10-31T02:04:51;9.53;;;5.40;;
7181;SDS011;3632;42.724;23.298;2022-10-31T02:07:20;7.60;;;4.83;;
7181;SDS011;3632;42.724;23.298;2022-10-31T02:09:51;8.40;;;5.23;;
7181;SDS011;3632;42.724;23.298;2022-10-31T02:12:19;9.00;;;6.10;;
7181;SDS011;3632;42.724;23.298;2022-10-31T02:14:48;8.50;;;6.03;;
7181;SDS011;3632;42.724;23.298;2022-10-31T02:17:15;8.93;;;6.10;;
7181;SDS011;3632;42.724;23.298;2022-10-31T02:19:45;12.83;;;6.43;;
7181;SDS011;3632;42.724;23.298;2022-10-31T02:22:19;8.97;;;6.50;;
7181;SDS011;3632;42.724;23.298;2022-10-31T02:25:02;11.00;;;6.90;;
7181;SDS011;3632;42.724;23.298;2022-10-31T02:27:52;12.20;;;7.27;;
7181;SDS011;3632;42.724;23.298;2022-10-31T02:30:35;12.00;;;7.00;;
7181;SDS011;3632;42.724;23.298;2022-10-31T02:33:10;13.20;;;7.37;;
7181;SDS011;3632;42.724;23.298;2022-10-31T02:35:50;11.13;;;7.40;;
7181;SDS011;3632;42.724;23.298;2022-10-31T02:38:28;14.07;;;7.60;;
7181;SDS011;3632;42.724;23.298;2022-10-31T02:41:04;12.60;;;7.17;;
7181;SDS011;3632;42.724;23.298;2022-10-31T02:43:39;11.83;;;7.27;;
7181;SDS011;3632;42.724;23.298;2022-10-31T02:46:13;9.67;;;7.30;;
7181;SDS011;3632;42.724;23.298;2022-10-31T02:48:47;10.70;;;7.10;;
7181;SDS011;3632;42.724;23.298;2022-10-31T02:51:17;12.77;;;7.40;;
7181;SDS011;3632;42.724;23.298;2022-10-31T02:53:44;10.03;;;7.27;;
7181;SDS011;3632;42.724;23.298;2022-10-31T02:56:11;9.73;;;6.60;;
7181;SDS011;3632;42.724;23.298;2022-10-31T02:58:41;10.57;;;7.30;;
7181;SDS011;3632;42.724;23.298;2022-10-31T03:01:18;10.27;;;7.03;;
7181;SDS011;3632;42.724;23.298;2022-10-31T03:04:17;8.53;;;6.90;;
7181;SDS011;3632;42.724;23.298;2022-10-31T03:07:08;9.30;;;6.77;;
7181;SDS011;3632;42.724;23.298;2022-10-31T03:09:45;8.97;;;7.23;;
7181;SDS011;3632;42.724;23.298;2022-10-31T03:12:20;9.27;;;7.23;;
7181;SDS011;3632;42.724;23.298;2022-10-31T03:14:53;10.70;;;7.40;;
7181;SDS011;3632;42.724;23.298;2022-10-31T03:17:27;8.93;;;7.93;;
7181;SDS011;3632;42.724;23.298;2022-10-31T03:20:02;9.50;;;7.50;;
7181;SDS011;3632;42.724;23.298;2022-10-31T03:22:32;9.33;;;7.60;;
7181;SDS011;3632;42.724;23.298;2022-10-31T03:25:01;10.83;;;8.30;;
7181;SDS011;3632;42.724;23.298;2022-10-31T03:27:31;13.80;;;9.60;;
7181;SDS011;3632;42.724;23.298;2022-10-31T03:30:03;16.40;;;10.30;;
7181;SDS011;3632;42.724;23.298;2022-10-31T03:32:33;12.27;;;8.80;;
7181;SDS011;3632;42.724;23.298;2022-10-31T03:35:04;11.90;;;8.90;;
7181;SDS011;3632;42.724;23.298;2022-10-31T03:37:34;14.13;;;9.20;;
7181;SDS011;3632;42.724;23.298;2022-10-31T03:40:02;12.47;;;8.97;;
7181;SDS011;3632;42.724;23.298;2022-10-31T03:42:34;11.63;;;8.43;;
7181;SDS011;3632;42.724;23.298;2022-10-31T03:45:05;13.30;;;9.00;;
7181;SDS011;3632;42.724;23.298;2022-10-31T03:47:36;14.30;;;9.00;;
7181;SDS011;3632;42.724;23.298;2022-10-31T03:50:07;10.23;;;8.33;;
7181;SDS011;3632;42.724;23.298;2022-10-31T03:52:35;13.40;;;8.00;;
7181;SDS011;3632;42.724;23.298;2022-10-31T03:55:08;13.97;;;8.47;;
7181;SDS011;3632;42.724;23.298;2022-10-31T03:57:40;13.03;;;8.17;;
7181;SDS011;3632;42.724;23.298;2022-10-31T04:00:12;14.80;;;8.30;;
7181;SDS011;3632;42.724;23.298;2022-10-31T04:02:41;13.17;;;8.60;;
7181;SDS011;3632;42.724;23.298;2022-10-31T04:05:14;11.93;;;8.87;;
7181;SDS011;3632;42.724;23.298;2022-10-31T04:07:45;10.10;;;7.97;;
7181;SDS011;3632;42.724;23.298;2022-10-31T04:10:15;14.10;;;8.87;;
7181;SDS011;3632;42.724;23.298;2022-10-31T04:12:43;11.33;;;7.87;;
7181;SDS011;3632;42.724;23.298;2022-10-31T04:15:17;13.37;;;10.07;;
7181;SDS011;3632;42.724;23.298;2022-10-31T04:17:46;15.23;;;8.77;;
7181;SDS011;3632;42.724;23.298;2022-10-31T04:20:17;11.93;;;8.40;;
7181;SDS011;3632;42.724;23.298;2022-10-31T04:22:44;13.97;;;8.57;;
7181;SDS011;3632;42.724;23.298;2022-10-31T04:25:11;11.57;;;8.40;;
7181;SDS011;3632;42.724;23.298;2022-10-31T04:27:38;12.70;;;9.13;;
7181;SDS011;3632;42.724;23.298;2022-10-31T04:30:05;16.27;;;10.03;;
7181;SDS011;3632;42.724;23.298;2022-10-31T04:32:32;14.50;;;10.07;;
7181;SDS011;3632;42.724;23.298;2022-10-31T04:34:59;14.13;;;10.50;;
7181;SDS011;3632;42.724;23.298;2022-10-31T04:37:27;12.70;;;9.47;;
7181;SDS011;3632;42.724;23.298;2022-10-31T04:39:54;15.07;;;9.73;;
7181;SDS011;3632;42.724;23.298;2022-10-31T04:42:20;14.47;;;9.47;;
7181;SDS011;3632;42.724;23.298;2022-10-31T04:44:47;13.27;;;9.53;;
7181;SDS011;3632;42.724;23.298;2022-10-31T04:47:14;15.13;;;10.83;;
7181;SDS011;3632;42.724;23.298;2022-10-31T04:49:40;13.60;;;10.90;;
7181;SDS011;3632;42.724;23.298;2022-10-31T04:52:07;13.93;;;9.60;;
7181;SDS011;3632;42.724;23.298;2022-10-31T04:54:35;14.13;;;10.17;;
7181;SDS011;3632;42.724;23.298;2022-10-31T04:57:02;18.50;;;11.37;;
7181;SDS011;3632;42.724;23.298;2022-10-31T04:59:29;16.87;;;11.47;;
7181;SDS011;3632;42.724;23.298;2022-10-31T05:01:55;15.77;;;11.27;;
7181;SDS011;3632;42.724;23.298;2022-10-31T05:04:22;18.63;;;11.53;;
7181;SDS011;3632;42.724;23.298;2022-10-31T05:06:49;16.50;;;11.20;;
7181;SDS011;3632;42.724;23.298;2022-10-31T05:09:16;16.17;;;10.47;;
7181;SDS011;3632;42.724;23.298;2022-10-31T05:11:44;17.27;;;11.37;;
7181;SDS011;3632;42.724;23.298;2022-10-31T05:14:10;15.50;;;10.33;;
7181;SDS011;3632;42.724;23.298;2022-10-31T05:16:37;18.50;;;11.47;;
7181;SDS011;3632;42.724;23.298;2022-10-31T05:19:05;22.47;;;10.73;;
7181;SDS011;3632;42.724;23.298;2022-10-31T05:21:32;17.37;;;11.20;;
7181;SDS011;3632;42.724;23.298;2022-10-31T05:23:59;23.33;;;11.47;;
7181;SDS011;3632;42.724;23.298;2022-10-31T05:26:26;35.17;;;25.10;;
7181;SDS011;3632;42.724;23.298;2022-10-31T05:28:54;21.17;;;13.80;;
7181;SDS011;3632;42.724;23.298;2022-10-31T05:31:21;28.70;;;19.87;;
7181;SDS011;3632;42.724;23.298;2022-10-31T05:33:47;26.10;;;14.47;;
7181;SDS011;3632;42.724;23.298;2022-10-31T05:36:14;22.50;;;13.00;;
7181;SDS011;3632;42.724;23.298;2022-10-31T05:38:41;27.20;;;14.00;;
7181;SDS011;3632;42.724;23.298;2022-10-31T05:41:07;23.77;;;13.27;;
7181;SDS011;3632;42.724;23.298;2022-10-31T05:43:34;33.07;;;20.20;;
7181;SDS011;3632;42.724;23.298;2022-10-31T05:46:03;22.23;;;12.50;;
7181;SDS011;3632;42.724;23.298;2022-10-31T05:48:30;20.83;;;13.57;;
7181;SDS011;3632;42.724;23.298;2022-10-31T05:50:57;27.43;;;14.20;;
7181;SDS011;3632;42.724;23.298;2022-10-31T05:53:23;28.13;;;15.57;;
7181;SDS011;3632;42.724;23.298;2022-10-31T05:55:50;26.43;;;15.17;;
7181;SDS011;3632;42.724;23.298;2022-10-31T05:58:17;27.03;;;13.73;;
7181;SDS011;3632;42.724;23.298;2022-10-31T06:00:43;28.30;;;13.90;;
7181;SDS011;3632;42.724;23.298;2022-10-31T06:03:12;23.97;;;13.17;;
7181;SDS011;3632;42.724;23.298;2022-10-31T06:05:38;20.23;;;13.30;;
7181;SDS011;3632;42.724;23.298;2022-10-31T06:08:05;24.70;;;12.87;;
7181;SDS011;3632;42.724;23.298;2022-10-31T06:10:32;21.97;;;13.10;;
7181;SDS011;3632;42.724;23.298;2022-10-31T06:12:58;21.70;;;13.10;;
7181;SDS011;3632;42.724;23.298;2022-10-31T06:15:25;23.20;;;13.00;;
7181;SDS011;3632;42.724;23.298;2022-10-31T06:17:59;25.87;;;12.37;;
7181;SDS011;3632;42.724;23.298;2022-10-31T06:20:28;18.47;;;11.80;;
7181;SDS011;3632;42.724;23.298;2022-10-31T06:22:54;18.57;;;12.73;;
7181;SDS011;3632;42.724;23.298;2022-10-31T06:25:21;20.60;;;12.27;;
7181;SDS011;3632;42.724;23.298;2022-10-31T06:27:48;17.23;;;11.50;;
7181;SDS011;3632;42.724;23.298;2022-10-31T06:30:15;22.13;;;13.43;;
7181;SDS011;3632;42.724;23.298;2022-10-31T06:32:41;17.27;;;12.43;;
7181;SDS011;3632;42.724;23.298;2022-10-31T06:35:08;22.97;;;13.60;;
7181;SDS011;3632;42.724;23.298;2022-10-31T06:37:37;20.00;;;12.73;;
7181;SDS011;3632;42.724;23.298;2022-10-31T06:40:04;19.93;;;12.13;;
7181;SDS011;3632;42.724;23.298;2022-10-31T06:42:31;19.07;;;12.17;;
7181;SDS011;3632;42.724;23.298;2022-10-31T06:44:58;20.97;;;11.33;;
7181;SDS011;3632;42.724;23.298;2022-10-31T06:47:25;20.23;;;12.07;;
7181;SDS011;3632;42.724;23.298;2022-10-31T06:49:51;16.90;;;11.50;;
7181;SDS011;3632;42.724;23.298;2022-10-31T06:52:18;16.93;;;10.67;;
7181;SDS011;3632;42.724;23.298;2022-10-31T06:54:46;16.13;;;11.20;;
7181;SDS011;3632;42.724;23.298;2022-10-31T06:57:15;15.23;;;10.13;;
7181;SDS011;3632;42.724;23.298;2022-10-31T06:59:41;22.17;;;11.30;;
7181;SDS011;3632;42.724;23.298;2022-10-31T07:02:08;13.90;;;11.30;;
7181;SDS011;3632;42.724;23.298;2022-10-31T07:04:36;16.63;;;11.07;;
7181;SDS011;3632;42.724;23.298;2022-10-31T07:07:02;17.87;;;11.57;;
7181;SDS011;3632;42.724;23.298;2022-10-31T07:09:29;14.97;;;10.80;;
7181;SDS011;3632;42.724;23.298;2022-10-31T07:11:57;14.73;;;11.13;;
7181;SDS011;3632;42.724;23.298;2022-10-31T07:14:24;16.60;;;10.90;;
7181;SDS011;3632;42.724;23.298;2022-10-31T07:16:51;16.47;;;11.87;;
7181;SDS011;3632;42.724;23.298;2022-10-31T07:19:18;17.53;;;12.53;;
7181;SDS011;3632;42.724;23.298;2022-10-31T07:21:45;15.20;;;12.57;;
7181;SDS011;3632;42.724;23.298;2022-10-31T07:24:11;15.23;;;11.90;;
7181;SDS011;3632;42.724;23.298;2022-10-31T07:26:38;15.43;;;12.17;;
7181;SDS011;3632;42.724;23.298;2022-10-31T07:29:06;17.93;;;12.10;;
7181;SDS011;3632;42.724;23.298;2022-10-31T07:31:33;20.53;;;13.00;;
7181;SDS011;3632;42.724;23.298;2022-10-31T07:34:00;17.30;;;12.40;;
7181;SDS011;3632;42.724;23.298;2022-10-31T07:36:27;15.23;;;12.23;;
7181;SDS011;3632;42.724;23.298;2022-10-31T07:38:53;17.67;;;13.23;;
7181;SDS011;3632;42.724;23.298;2022-10-31T07:41:20;19.60;;;12.50;;
7181;SDS011;3632;42.724;23.298;2022-10-31T07:43:47;17.37;;;12.83;;
7181;SDS011;3632;42.724;23.298;2022-10-31T07:46:16;18.30;;;13.23;;
7181;SDS011;3632;42.724;23.298;2022-10-31T07:48:42;21.83;;;13.67;;
7181;SDS011;3632;42.724;23.298;2022-10-31T07:51:09;20.70;;;13.33;;
7181;SDS011;3632;42.724;23.298;2022-10-31T07:53:36;21.57;;;12.40;;
7181;SDS011;3632;42.724;23.298;2022-10-31T07:56:03;18.50;;;13.37;;
7181;SDS011;3632;42.724;23.298;2022-10-31T07:58:30;17.10;;;13.00;;
7181;SDS011;3632;42.724;23.298;2022-10-31T08:00:57;18.80;;;13.37;;
7181;SDS011;3632;42.724;23.298;2022-10-31T08:03:25;15.60;;;12.87;;
7181;SDS011;3632;42.724;23.298;2022-10-31T08:05:52;19.37;;;14.57;;
7181;SDS011;3632;42.724;23.298;2022-10-31T08:08:18;24.37;;;15.20;;
7181;SDS011;3632;42.724;23.298;2022-10-31T08:10:45;17.97;;;13.33;;
7181;SDS011;3632;42.724;23.298;2022-10-31T08:13:12;18.73;;;13.30;;
7181;SDS011;3632;42.724;23.298;2022-10-31T08:15:40;21.33;;;13.80;;
7181;SDS011;3632;42.724;23.298;2022-10-31T08:18:10;19.20;;;13.17;;
7181;SDS011;3632;42.724;23.298;2022-10-31T08:20:39;22.43;;;14.17;;
7181;SDS011;3632;42.724;23.298;2022-10-31T08:23:06;21.20;;;13.80;;
7181;SDS011;3632;42.724;23.298;2022-10-31T08:25:33;17.80;;;13.77;;
7181;SDS011;3632;42.724;23.298;2022-10-31T08:28:01;18.37;;;12.60;;
7181;SDS011;3632;42.724;23.298;2022-10-31T08:30:29;19.33;;;13.37;;
7181;SDS011;3632;42.724;23.298;2022-10-31T08:33:01;23.97;;;15.77;;
7181;SDS011;3632;42.724;23.298;2022-10-31T08:35:29;18.50;;;15.20;;
7181;SDS011;3632;42.724;23.298;2022-10-31T08:37:57;18.20;;;12.93;;
7181;SDS011;3632;42.724;23.298;2022-10-31T08:40:25;16.87;;;12.63;;
7181;SDS011;3632;42.724;23.298;2022-10-31T08:42:56;17.50;;;14.57;;
7181;SDS011;3632;42.724;23.298;2022-10-31T08:45:23;13.17;;;11.37;;
7181;SDS011;3632;42.724;23.298;2022-10-31T08:47:50;17.10;;;13.27;;
7181;SDS011;3632;42.724;23.298;2022-10-31T08:50:17;16.20;;;12.87;;
7181;SDS011;3632;42.724;23.298;2022-10-31T08:52:44;19.90;;;14.27;;
7181;SDS011;3632;42.724;23.298;2022-10-31T08:55:12;14.80;;;12.10;;
7181;SDS011;3632;42.724;23.298;2022-10-31T08:57:39;16.00;;;11.57;;
7181;SDS011;3632;42.724;23.298;2022-10-31T09:00:06;13.47;;;11.03;;
7181;SDS011;3632;42.724;23.298;2022-10-31T09:02:34;18.90;;;15.33;;
7181;SDS011;3632;42.724;23.298;2022-10-31T09:05:02;20.60;;;15.83;;
7181;SDS011;3632;42.724;23.298;2022-10-31T09:07:29;16.07;;;12.77;;
7181;SDS011;3632;42.724;23.298;2022-10-31T09:09:55;17.53;;;13.97;;
7181;SDS011;3632;42.724;23.298;2022-10-31T09:12:24;19.43;;;11.07;;
7181;SDS011;3632;42.724;23.298;2022-10-31T09:14:50;14.37;;;11.30;;
7181;SDS011;3632;42.724;23.298;2022-10-31T09:17:17;16.73;;;11.37;;
7181;SDS011;3632;42.724;23.298;2022-10-31T09:19:44;14.77;;;10.90;;
7181;SDS011;3632;42.724;23.298;2022-10-31T09:22:10;12.80;;;10.50;;
7181;SDS011;3632;42.724;23.298;2022-10-31T09:24:37;14.43;;;10.67;;
7181;SDS011;3632;42.724;23.298;2022-10-31T09:27:04;20.33;;;11.83;;
7181;SDS011;3632;42.724;23.298;2022-10-31T09:29:32;14.43;;;10.23;;
7181;SDS011;3632;42.724;23.298;2022-10-31T09:31:59;14.23;;;10.40;;
7181;SDS011;3632;42.724;23.298;2022-10-31T09:34:26;14.23;;;9.57;;
7181;SDS011;3632;42.724;23.298;2022-10-31T09:36:53;14.73;;;10.10;;
7181;SDS011;3632;42.724;23.298;2022-10-31T09:39:19;17.37;;;11.13;;
7181;SDS011;3632;42.724;23.298;2022-10-31T09:41:53;21.77;;;10.50;;
7181;SDS011;3632;42.724;23.298;2022-10-31T09:44:30;13.40;;;9.57;;
7181;SDS011;3632;42.724;23.298;2022-10-31T09:47:08;14.00;;;9.23;;
7181;SDS011;3632;42.724;23.298;2022-10-31T09:49:51;14.13;;;8.70;;
7181;SDS011;3632;42.724;23.298;2022-10-31T09:52:27;14.37;;;10.77;;
7181;SDS011;3632;42.724;23.298;2022-10-31T09:54:58;11.57;;;8.00;;
7181;SDS011;3632;42.724;23.298;2022-10-31T09:57:29;9.90;;;7.77;;
7181;SDS011;3632;42.724;23.298;2022-10-31T10:00:00;14.93;;;11.63;;
7181;SDS011;3632;42.724;23.298;2022-10-31T10:02:30;20.10;;;15.83;;
7181;SDS011;3632;42.724;23.298;2022-10-31T10:05:03;14.10;;;8.73;;
7181;SDS011;3632;42.724;23.298;2022-10-31T10:07:35;17.73;;;11.27;;
7181;SDS011;3632;42.724;23.298;2022-10-31T10:10:14;14.13;;;7.87;;
7181;SDS011;3632;42.724;23.298;2022-10-31T10:12:47;13.20;;;8.07;;
7181;SDS011;3632;42.724;23.298;2022-10-31T10:18:21;8.13;;;5.77;;
7181;SDS011;3632;42.724;23.298;2022-10-31T10:20:58;8.57;;;5.00;;
7181;SDS011;3632;42.724;23.298;2022-10-31T10:23:38;10.13;;;5.43;;
7181;SDS011;3632;42.724;23.298;2022-10-31T10:26:15;10.87;;;6.00;;
7181;SDS011;3632;42.724;23.298;2022-10-31T10:28:44;6.40;;;4.50;;
7181;SDS011;3632;42.724;23.298;2022-10-31T10:31:16;10.40;;;6.60;;
7181;SDS011;3632;42.724;23.298;2022-10-31T10:33:48;10.97;;;5.40;;
7181;SDS011;3632;42.724;23.298;2022-10-31T10:36:27;10.57;;;5.30;;
7181;SDS011;3632;42.724;23.298;2022-10-31T10:39:00;13.60;;;5.07;;
7181;SDS011;3632;42.724;23.298;2022-10-31T10:41:31;7.43;;;4.87;;
7181;SDS011;3632;42.724;23.298;2022-10-31T10:43:59;7.47;;;5.40;;
7181;SDS011;3632;42.724;23.298;2022-10-31T10:46:28;9.93;;;5.27;;
7181;SDS011;3632;42.724;23.298;2022-10-31T10:49:22;10.53;;;4.70;;
7181;SDS011;3632;42.724;23.298;2022-10-31T10:51:57;8.07;;;5.17;;
7181;SDS011;3632;42.724;23.298;2022-10-31T10:57:38;9.10;;;5.17;;
7181;SDS011;3632;42.724;23.298;2022-10-31T11:00:20;7.03;;;4.17;;
7181;SDS011;3632;42.724;23.298;2022-10-31T11:02:50;8.27;;;5.80;;
7181;SDS011;3632;42.724;23.298;2022-10-31T11:05:20;8.50;;;4.83;;
7181;SDS011;3632;42.724;23.298;2022-10-31T11:07:50;11.47;;;4.57;;
7181;SDS011;3632;42.724;23.298;2022-10-31T11:10:17;7.90;;;4.77;;
7181;SDS011;3632;42.724;23.298;2022-10-31T11:12:45;5.73;;;3.93;;
7181;SDS011;3632;42.724;23.298;2022-10-31T11:15:24;8.85;;;6.88;;
7181;SDS011;3632;42.724;23.298;2022-10-31T11:17:54;13.75;;;9.50;;
7181;SDS011;3632;42.724;23.298;2022-10-31T11:20:29;8.70;;;4.30;;
7181;SDS011;3632;42.724;23.298;2022-10-31T11:23:03;7.20;;;4.07;;
7181;SDS011;3632;42.724;23.298;2022-10-31T11:25:40;12.40;;;4.90;;
7181;SDS011;3632;42.724;23.298;2022-10-31T11:28:14;9.67;;;4.97;;
7181;SDS011;3632;42.724;23.298;2022-10-31T11:30:42;12.40;;;4.88;;
7181;SDS011;3632;42.724;23.298;2022-10-31T11:33:16;10.65;;;5.72;;
7181;SDS011;3632;42.724;23.298;2022-10-31T11:35:46;8.00;;;4.17;;
7181;SDS011;3632;42.724;23.298;2022-10-31T11:38:15;6.93;;;4.13;;
7181;SDS011;3632;42.724;23.298;2022-10-31T11:40:52;9.10;;;4.20;;
7181;SDS011;3632;42.724;23.298;2022-10-31T11:43:21;9.23;;;3.88;;
7181;SDS011;3632;42.724;23.298;2022-10-31T11:45:48;6.10;;;3.90;;
7181;SDS011;3632;42.724;23.298;2022-10-31T11:48:17;9.93;;;4.35;;
7181;SDS011;3632;42.724;23.298;2022-10-31T11:50:50;9.88;;;4.50;;
7181;SDS011;3632;42.724;23.298;2022-10-31T11:53:18;8.70;;;4.45;;
7181;SDS011;3632;42.724;23.298;2022-10-31T11:55:58;6.77;;;4.00;;
7181;SDS011;3632;42.724;23.298;2022-10-31T11:58:28;8.13;;;3.70;;
7181;SDS011;3632;42.724;23.298;2022-10-31T12:00:55;9.35;;;4.07;;
7181;SDS011;3632;42.724;23.298;2022-10-31T12:03:29;9.15;;;4.63;;
7181;SDS011;3632;42.724;23.298;2022-10-31T12:06:04;6.07;;;4.00;;
7181;SDS011;3632;42.724;23.298;2022-10-31T12:08:34;7.38;;;4.10;;
7181;SDS011;3632;42.724;23.298;2022-10-31T12:11:04;9.68;;;4.45;;
7181;SDS011;3632;42.724;23.298;2022-10-31T12:13:40;6.85;;;3.83;;
7181;SDS011;3632;42.724;23.298;2022-10-31T12:16:17;8.43;;;4.38;;
7181;SDS011;3632;42.724;23.298;2022-10-31T12:18:56;8.80;;;4.03;;
7181;SDS011;3632;42.724;23.298;2022-10-31T12:21:43;7.78;;;4.38;;
7181;SDS011;3632;42.724;23.298;2022-10-31T12:24:23;12.75;;;4.20;;
7181;SDS011;3632;42.724;23.298;2022-10-31T12:27:05;7.43;;;4.00;;
7181;SDS011;3632;42.724;23.298;2022-10-31T12:29:47;9.82;;;4.85;;
7181;SDS011;3632;42.724;23.298;2022-10-31T12:32:26;7.57;;;4.47;;
7181;SDS011;3632;42.724;23.298;2022-10-31T12:35:13;12.00;;;6.68;;
7181;SDS011;3632;42.724;23.298;2022-10-31T12:37:53;9.35;;;4.30;;
7181;SDS011;3632;42.724;23.298;2022-10-31T12:40:32;14.55;;;8.80;;
7181;SDS011;3632;42.724;23.298;2022-10-31T12:43:09;11.88;;;4.68;;
7181;SDS011;3632;42.724;23.298;2022-10-31T12:45:50;9.23;;;6.85;;
7181;SDS011;3632;42.724;23.298;2022-10-31T12:48:38;9.52;;;4.63;;
7181;SDS011;3632;42.724;23.298;2022-10-31T12:51:24;8.32;;;4.38;;
7181;SDS011;3632;42.724;23.298;2022-10-31T12:54:11;10.52;;;6.32;;
7181;SDS011;3632;42.724;23.298;2022-10-31T12:56:49;6.85;;;4.30;;
7181;SDS011;3632;42.724;23.298;2022-10-31T12:59:26;7.45;;;4.53;;
7181;SDS011;3632;42.724;23.298;2022-10-31T13:01:59;6.55;;;4.10;;
7181;SDS011;3632;42.724;23.298;2022-10-31T13:04:33;13.15;;;4.88;;
7181;SDS011;3632;42.724;23.298;2022-10-31T13:07:09;9.00;;;4.05;;
7181;SDS011;3632;42.724;23.298;2022-10-31T13:09:42;12.38;;;4.25;;
7181;SDS011;3632;42.724;23.298;2022-10-31T13:12:17;12.30;;;6.03;;
7181;SDS011;3632;42.724;23.298;2022-10-31T13:14:48;10.88;;;3.85;;
7181;SDS011;3632;42.724;23.298;2022-10-31T13:17:20;10.90;;;4.93;;
7181;SDS011;3632;42.724;23.298;2022-10-31T13:19:53;10.50;;;4.80;;
7181;SDS011;3632;42.724;23.298;2022-10-31T13:22:24;7.93;;;3.88;;
7181;SDS011;3632;42.724;23.298;2022-10-31T13:24:58;9.93;;;4.03;;
7181;SDS011;3632;42.724;23.298;2022-10-31T13:27:30;8.48;;;4.40;;
7181;SDS011;3632;42.724;23.298;2022-10-31T13:30:11;15.27;;;8.43;;
7181;SDS011;3632;42.724;23.298;2022-10-31T13:32:41;8.95;;;4.28;;
7181;SDS011;3632;42.724;23.298;2022-10-31T13:35:12;13.68;;;5.05;;
7181;SDS011;3632;42.724;23.298;2022-10-31T13:37:46;7.15;;;3.67;;
7181;SDS011;3632;42.724;23.298;2022-10-31T13:40:20;9.07;;;3.60;;
7181;SDS011;3632;42.724;23.298;2022-10-31T13:43:01;7.15;;;4.43;;
7181;SDS011;3632;42.724;23.298;2022-10-31T13:45:32;10.07;;;4.82;;
7181;SDS011;3632;42.724;23.298;2022-10-31T13:47:59;10.85;;;4.18;;
7181;SDS011;3632;42.724;23.298;2022-10-31T13:50:28;8.18;;;4.90;;
7181;SDS011;3632;42.724;23.298;2022-10-31T13:53:13;12.43;;;5.70;;
7181;SDS011;3632;42.724;23.298;2022-10-31T13:55:46;7.43;;;3.28;;
7181;SDS011;3632;42.724;23.298;2022-10-31T13:58:23;10.18;;;5.25;;
7181;SDS011;3632;42.724;23.298;2022-10-31T14:00:59;7.63;;;2.85;;
7181;SDS011;3632;42.724;23.298;2022-10-31T14:03:30;6.68;;;3.53;;
7181;SDS011;3632;42.724;23.298;2022-10-31T14:05:59;12.77;;;4.13;;
7181;SDS011;3632;42.724;23.298;2022-10-31T14:08:27;8.63;;;3.17;;
7181;SDS011;3632;42.724;23.298;2022-10-31T14:10:58;11.00;;;3.55;;
7181;SDS011;3632;42.724;23.298;2022-10-31T14:13:26;9.90;;;3.50;;
7181;SDS011;3632;42.724;23.298;2022-10-31T14:15:58;12.27;;;3.92;;
7181;SDS011;3632;42.724;23.298;2022-10-31T14:18:29;17.55;;;4.32;;
7181;SDS011;3632;42.724;23.298;2022-10-31T14:20:57;9.13;;;3.63;;
7181;SDS011;3632;42.724;23.298;2022-10-31T14:23:39;16.38;;;4.25;;
7181;SDS011;3632;42.724;23.298;2022-10-31T14:26:18;10.67;;;3.50;;
7181;SDS011;3632;42.724;23.298;2022-10-31T14:28:48;14.03;;;3.83;;
7181;SDS011;3632;42.724;23.298;2022-10-31T14:31:34;10.20;;;3.97;;
7181;SDS011;3632;42.724;23.298;2022-10-31T14:34:04;10.50;;;3.77;;
7181;SDS011;3632;42.724;23.298;2022-10-31T14:36:47;13.23;;;4.00;;
7181;SDS011;3632;42.724;23.298;2022-10-31T14:39:25;12.10;;;4.20;;
7181;SDS011;3632;42.724;23.298;2022-10-31T14:42:00;16.53;;;4.60;;
7181;SDS011;3632;42.724;23.298;2022-10-31T14:48:00;16.97;;;5.60;;
7181;SDS011;3632;42.724;23.298;2022-10-31T14:50:43;13.00;;;4.77;;
7181;SDS011;3632;42.724;23.298;2022-10-31T14:53:15;20.37;;;10.20;;
7181;SDS011;3632;42.724;23.298;2022-10-31T14:55:51;15.73;;;6.27;;
7181;SDS011;3632;42.724;23.298;2022-10-31T14:58:20;25.60;;;8.37;;
7181;SDS011;3632;42.724;23.298;2022-10-31T15:00:50;20.47;;;5.73;;
7181;SDS011;3632;42.724;23.298;2022-10-31T15:03:22;17.83;;;5.57;;
7181;SDS011;3632;42.724;23.298;2022-10-31T15:05:55;14.40;;;5.03;;
7181;SDS011;3632;42.724;23.298;2022-10-31T15:08:32;16.90;;;5.07;;
7181;SDS011;3632;42.724;23.298;2022-10-31T15:11:10;14.40;;;5.07;;
7181;SDS011;3632;42.724;23.298;2022-10-31T15:21:31;16.80;;;5.53;;
7181;SDS011;3632;42.724;23.298;2022-10-31T15:24:00;24.07;;;6.23;;
7181;SDS011;3632;42.724;23.298;2022-10-31T15:26:29;14.53;;;5.90;;
7181;SDS011;3632;42.724;23.298;2022-10-31T15:28:59;14.83;;;6.43;;